createdAt,value
2016-11-22T00:00:46.407Z,0
2016-11-22T00:01:46.115Z,0
2016-11-22T00:02:46.765Z,0
2016-11-22T00:03:46.471Z,0
2016-11-22T00:04:46.178Z,0
2016-11-22T00:05:46.832Z,0
2016-11-22T00:06:46.541Z,0
2016-11-22T00:07:46.562Z,0
2016-11-22T00:08:46.613Z,0
2016-11-22T00:09:46.604Z,0
2016-11-22T00:10:46.649Z,0
2016-11-22T00:11:46.685Z,0
2016-11-22T00:12:46.989Z,0
2016-11-22T00:13:47.007Z,0
2016-11-22T00:14:47.366Z,0
2016-11-22T00:15:47.064Z,0
2016-11-22T00:16:46.766Z,0
2016-11-22T00:17:46.462Z,0
2016-11-22T00:18:47.131Z,0
2016-11-22T00:20:01.711Z,0
2016-11-22T00:20:46.840Z,0
2016-11-22T00:21:46.548Z,0
2016-11-22T00:22:46.888Z,0
2016-11-22T00:23:46.908Z,0
2016-11-22T00:24:47.245Z,0
2016-11-22T00:25:47.595Z,0
2016-11-22T00:26:46.973Z,0
2016-11-22T00:27:47.313Z,0
2016-11-22T00:28:47.018Z,0
2016-11-22T00:29:46.757Z,0
2016-11-22T00:30:47.406Z,0
2016-11-22T00:31:47.112Z,0
2016-11-22T00:32:46.793Z,0
2016-11-22T00:33:47.456Z,0
2016-11-22T00:34:47.462Z,0
2016-11-22T00:35:46.857Z,0
2016-11-22T00:36:46.911Z,0
2016-11-22T00:37:46.899Z,0
2016-11-22T00:38:46.929Z,0
2016-11-22T00:39:46.949Z,0
2016-11-22T00:40:47.600Z,0
2016-11-22T00:41:47.936Z,0
2016-11-22T00:42:47.957Z,0
2016-11-22T00:43:47.363Z,0
2016-11-22T00:44:47.684Z,0
2016-11-22T00:45:48.025Z,0
2016-11-22T00:46:47.723Z,0
2016-11-22T00:47:47.441Z,0
2016-11-22T00:48:47.142Z,0
2016-11-22T00:49:47.484Z,0
2016-11-22T00:50:47.210Z,0
2016-11-22T00:51:47.535Z,0
2016-11-22T00:52:47.547Z,0
2016-11-22T00:53:47.900Z,0
2016-11-22T00:54:47.907Z,0
2016-11-22T00:55:47.929Z,0
2016-11-22T00:56:47.635Z,0
2016-11-22T00:57:47.654Z,0
2016-11-22T00:58:48.340Z,0
2016-11-22T00:59:48.011Z,0
2016-11-22T01:00:48.365Z,0
2016-11-22T01:01:48.070Z,0
2016-11-22T01:02:47.763Z,0
2016-11-22T01:03:47.785Z,0
2016-11-22T01:04:48.442Z,0
2016-11-22T01:05:47.521Z,0
2016-11-22T01:06:48.201Z,0
2016-11-22T01:07:48.192Z,0
2016-11-22T01:08:47.898Z,0
2016-11-22T01:09:47.608Z,0
2016-11-22T01:10:47.943Z,0
2016-11-22T01:11:47.964Z,0
2016-11-22T01:12:48.656Z,0
2016-11-22T01:13:48.338Z,0
2016-11-22T01:14:47.720Z,0
2016-11-22T01:15:48.050Z,0
2016-11-22T01:16:48.083Z,0
2016-11-22T01:17:48.415Z,0
2016-11-22T01:18:48.440Z,0
2016-11-22T01:19:48.461Z,0
2016-11-22T01:20:48.502Z,0
2016-11-22T01:21:47.872Z,0
2016-11-22T01:22:48.528Z,0
2016-11-22T01:23:47.923Z,0
2016-11-22T01:24:48.888Z,0
2016-11-22T01:25:48.273Z,0
2016-11-22T01:26:48.301Z,0
2016-11-22T01:27:48.331Z,0
2016-11-22T01:28:48.663Z,0
2016-11-22T01:29:48.061Z,0
2016-11-22T01:30:49.025Z,0
2016-11-22T01:31:48.730Z,0
2016-11-22T01:32:48.751Z,0
2016-11-22T01:33:49.096Z,0
2016-11-22T01:34:48.800Z,0
2016-11-22T01:35:49.145Z,0
2016-11-22T01:36:48.206Z,0
2016-11-22T01:37:48.552Z,0
2016-11-22T01:38:48.888Z,0
2016-11-22T01:39:48.281Z,0
2016-11-22T01:40:48.616Z,0
2016-11-22T01:41:48.635Z,0
2016-11-22T01:42:48.981Z,0
2016-11-22T01:43:49.003Z,0
2016-11-22T01:44:48.391Z,0
2016-11-22T01:45:48.723Z,0
2016-11-22T01:46:48.749Z,0
2016-11-22T01:47:49.088Z,0
2016-11-22T01:48:48.483Z,0
2016-11-22T01:49:49.132Z,0
2016-11-22T01:50:48.541Z,0
2016-11-22T01:51:48.865Z,0
2016-11-22T01:52:48.887Z,0
2016-11-22T01:53:49.221Z,0
2016-11-22T01:54:49.257Z,0
2016-11-22T01:55:48.635Z,0
2016-11-22T01:56:48.980Z,0
2016-11-22T01:57:49.315Z,0
2016-11-22T01:58:49.034Z,0
2016-11-22T01:59:49.363Z,0
2016-11-22T02:00:49.066Z,0
2016-11-22T02:01:49.741Z,0
2016-11-22T02:02:49.423Z,0
2016-11-22T02:03:49.453Z,0
2016-11-22T02:04:49.158Z,0
2016-11-22T02:05:49.527Z,0
2016-11-22T02:06:49.199Z,0
2016-11-22T02:07:49.540Z,0
2016-11-22T02:08:48.933Z,0
2016-11-22T02:09:49.920Z,0
2016-11-22T02:10:48.985Z,0
2016-11-22T02:11:49.319Z,0
2016-11-22T02:12:49.656Z,0
2016-11-22T02:13:50.011Z,0
2016-11-22T02:14:49.717Z,0
2016-11-22T02:15:49.412Z,0
2016-11-22T02:16:49.749Z,0
2016-11-22T02:17:49.142Z,0
2016-11-22T02:18:49.162Z,0
2016-11-22T02:19:49.221Z,0
2016-11-22T02:20:49.528Z,0
2016-11-22T02:21:49.568Z,0
2016-11-22T02:22:49.572Z,0
2016-11-22T02:23:49.598Z,0
2016-11-22T02:24:49.618Z,0
2016-11-22T02:25:49.664Z,0
2016-11-22T02:26:49.670Z,0
2016-11-22T02:27:50.003Z,0
2016-11-22T02:28:49.710Z,0
2016-11-22T02:29:50.059Z,0
2016-11-22T02:30:49.759Z,0
2016-11-22T02:31:50.097Z,0
2016-11-22T02:32:50.122Z,0
2016-11-22T02:33:50.193Z,0
2016-11-22T02:34:50.165Z,0
2016-11-22T02:35:49.557Z,0
2016-11-22T02:36:50.210Z,0
2016-11-22T02:37:49.937Z,0
2016-11-22T02:38:50.266Z,0
2016-11-22T02:39:49.656Z,0
2016-11-22T02:40:50.313Z,0
2016-11-22T02:41:50.644Z,0
2016-11-22T02:42:50.031Z,0
2016-11-22T02:43:49.741Z,0
2016-11-22T02:44:49.768Z,0
2016-11-22T02:45:50.427Z,0
2016-11-22T02:46:50.447Z,0
2016-11-22T02:47:50.468Z,0
2016-11-22T02:48:49.884Z,0
2016-11-22T02:49:50.512Z,0
2016-11-22T02:50:49.910Z,0
2016-11-22T02:51:50.245Z,0
2016-11-22T02:52:50.279Z,0
2016-11-22T02:53:50.296Z,0
2016-11-22T02:54:50.984Z,0
2016-11-22T02:55:50.660Z,0
2016-11-22T02:56:50.379Z,0
2016-11-22T02:57:51.017Z,0
2016-11-22T02:58:50.731Z,0
2016-11-22T02:59:50.434Z,0
2016-11-22T03:00:51.088Z,0
2016-11-22T03:01:50.480Z,0
2016-11-22T03:02:50.518Z,0
2016-11-22T03:03:50.844Z,0
2016-11-22T03:04:50.555Z,0
2016-11-22T03:05:51.416Z,0
2016-11-22T03:06:51.275Z,0
2016-11-22T03:07:50.936Z,0
2016-11-22T03:08:51.286Z,0
2016-11-22T03:09:50.983Z,0
2016-11-22T03:10:51.012Z,0
2016-11-22T03:11:50.715Z,0
2016-11-22T03:12:50.740Z,0
2016-11-22T03:13:50.767Z,0
2016-11-22T03:14:51.101Z,0
2016-11-22T03:15:51.144Z,0
2016-11-22T03:16:51.145Z,0
2016-11-22T03:17:51.179Z,0
2016-11-22T03:18:51.190Z,0
2016-11-22T03:19:51.217Z,0
2016-11-22T03:20:50.946Z,0
2016-11-22T03:21:50.631Z,0
2016-11-22T03:22:50.967Z,0
2016-11-22T03:23:51.007Z,0
2016-11-22T03:24:51.021Z,0
2016-11-22T03:25:51.033Z,0
2016-11-22T03:26:51.378Z,0
2016-11-22T03:27:51.406Z,0
2016-11-22T03:28:51.108Z,0
2016-11-22T03:29:51.450Z,0
2016-11-22T03:30:51.473Z,0
2016-11-22T03:31:51.180Z,0
2016-11-22T03:32:51.224Z,0
2016-11-22T03:33:51.550Z,0
2016-11-22T03:34:51.271Z,0
2016-11-22T03:35:51.900Z,0
2016-11-22T03:36:50.991Z,0
2016-11-22T03:37:50.998Z,0
2016-11-22T03:38:51.660Z,0
2016-11-22T03:39:51.369Z,0
2016-11-22T03:40:51.756Z,0
2016-11-22T03:41:51.413Z,0
2016-11-22T03:42:51.438Z,0
2016-11-22T03:43:51.462Z,0
2016-11-22T03:44:51.484Z,0
2016-11-22T03:45:51.194Z,0
2016-11-22T03:46:51.533Z,0
2016-11-22T03:47:51.872Z,0
2016-11-22T03:48:51.917Z,0
2016-11-22T03:49:51.916Z,0
2016-11-22T03:50:51.961Z,0
2016-11-22T03:51:51.336Z,0
2016-11-22T03:52:51.989Z,0
2016-11-22T03:53:51.697Z,0
2016-11-22T03:54:51.408Z,0
2016-11-22T03:55:51.740Z,0
2016-11-22T03:56:51.763Z,0
2016-11-22T03:57:52.107Z,0
2016-11-22T03:58:51.812Z,0
2016-11-22T03:59:52.150Z,0
2016-11-22T04:00:51.895Z,0
2016-11-22T04:01:52.513Z,0
2016-11-22T04:02:51.908Z,0
2016-11-22T04:03:52.255Z,0
2016-11-22T04:04:52.278Z,0
2016-11-22T04:05:52.293Z,0
2016-11-22T04:06:51.999Z,0
2016-11-22T04:07:52.023Z,0
2016-11-22T04:08:52.054Z,0
2016-11-22T04:09:52.095Z,0
2016-11-22T04:10:52.418Z,0
2016-11-22T04:11:52.428Z,0
2016-11-22T04:12:52.136Z,0
2016-11-22T04:13:52.161Z,0
2016-11-22T04:14:52.181Z,0
2016-11-22T04:15:51.895Z,0
2016-11-22T04:16:52.547Z,0
2016-11-22T04:17:52.905Z,0
2016-11-22T04:18:52.275Z,0
2016-11-22T04:19:52.312Z,0
2016-11-22T04:20:52.325Z,0
2016-11-22T04:21:53.003Z,0
2016-11-22T04:22:52.371Z,0
2016-11-22T04:23:52.702Z,0
2016-11-22T04:24:52.415Z,0
2016-11-22T04:25:52.439Z,0
2016-11-22T04:26:52.144Z,0
2016-11-22T04:27:52.163Z,0
2016-11-22T04:28:52.811Z,0
2016-11-22T04:29:52.210Z,0
2016-11-22T04:30:52.544Z,0
2016-11-22T04:31:52.885Z,0
2016-11-22T04:32:52.597Z,0
2016-11-22T04:33:52.929Z,0
2016-11-22T04:34:52.956Z,0
2016-11-22T04:35:52.663Z,0
2016-11-22T04:36:52.373Z,0
2016-11-22T04:37:52.706Z,0
2016-11-22T04:38:53.362Z,0
2016-11-22T04:39:53.418Z,0
2016-11-22T04:40:53.430Z,0
2016-11-22T04:41:52.813Z,0
2016-11-22T04:42:53.452Z,0
2016-11-22T04:43:52.846Z,0
2016-11-22T04:44:52.567Z,0
2016-11-22T04:45:52.889Z,0
2016-11-22T04:46:52.911Z,0
2016-11-22T04:47:53.574Z,0
2016-11-22T04:48:53.594Z,0
2016-11-22T04:49:53.299Z,0
2016-11-22T04:50:52.689Z,0
2016-11-22T04:51:53.355Z,0
2016-11-22T04:52:53.366Z,0
2016-11-22T04:53:53.098Z,0
2016-11-22T04:54:53.406Z,0
2016-11-22T04:55:53.434Z,0
2016-11-22T04:56:52.844Z,0
2016-11-22T04:57:53.161Z,0
2016-11-22T04:58:53.185Z,0
2016-11-22T04:59:53.209Z,0
2016-11-22T05:00:52.911Z,0
2016-11-22T05:01:53.570Z,0
2016-11-22T05:02:53.272Z,0
2016-11-22T05:03:53.305Z,0
2016-11-22T05:04:53.317Z,0
2016-11-22T05:05:53.022Z,0
2016-11-22T05:06:53.682Z,0
2016-11-22T05:07:53.706Z,0
2016-11-22T05:08:53.126Z,0
2016-11-22T05:09:53.743Z,0
2016-11-22T05:10:53.143Z,0
2016-11-22T05:11:53.809Z,0
2016-11-22T05:12:53.817Z,0
2016-11-22T05:13:53.519Z,0
2016-11-22T05:14:53.543Z,0
2016-11-22T05:15:53.902Z,0
2016-11-22T05:16:53.597Z,0
2016-11-22T05:17:53.614Z,0
2016-11-22T05:18:53.635Z,0
2016-11-22T05:19:53.346Z,0
2016-11-22T05:20:54.011Z,0
2016-11-22T05:21:53.706Z,0
2016-11-22T05:22:54.028Z,0
2016-11-22T05:23:54.063Z,0
2016-11-22T05:24:53.450Z,0
2016-11-22T05:25:53.906Z,0
2016-11-22T05:26:54.129Z,0
2016-11-22T05:27:53.837Z,0
2016-11-22T05:28:53.878Z,0
2016-11-22T05:29:54.203Z,0
2016-11-22T05:30:53.899Z,0
2016-11-22T05:31:54.241Z,0
2016-11-22T05:32:53.952Z,0
2016-11-22T05:33:54.283Z,0
2016-11-22T05:34:54.302Z,0
2016-11-22T05:35:54.026Z,0
2016-11-22T05:36:54.045Z,0
2016-11-22T05:37:53.745Z,0
2016-11-22T05:38:54.752Z,0
2016-11-22T05:39:53.783Z,0
2016-11-22T05:40:53.808Z,0
2016-11-22T05:41:54.143Z,0
2016-11-22T05:42:54.491Z,0
2016-11-22T05:43:54.532Z,0
2016-11-22T05:44:54.523Z,0
2016-11-22T05:45:54.236Z,0
2016-11-22T05:46:54.286Z,0
2016-11-22T05:47:54.593Z,0
2016-11-22T05:48:54.615Z,0
2016-11-22T05:49:54.664Z,0
2016-11-22T05:50:54.025Z,0
2016-11-22T05:51:54.061Z,0
2016-11-22T05:52:54.386Z,0
2016-11-22T05:53:54.424Z,0
2016-11-22T05:54:54.427Z,0
2016-11-22T05:55:55.082Z,0
2016-11-22T05:56:54.785Z,0
2016-11-22T05:57:55.147Z,0
2016-11-22T05:58:54.526Z,0
2016-11-22T05:59:54.859Z,0
2016-11-22T06:00:54.555Z,0
2016-11-22T06:01:54.608Z,0
2016-11-22T06:02:54.806Z,0
2016-11-22T06:03:54.939Z,0
2016-11-22T06:04:54.331Z,0
2016-11-22T06:05:54.984Z,0
2016-11-22T06:06:55.319Z,0
2016-11-22T06:07:54.712Z,0
2016-11-22T06:08:54.731Z,0
2016-11-22T06:09:54.439Z,0
2016-11-22T06:10:54.774Z,0
2016-11-22T06:11:54.796Z,0
2016-11-22T06:12:55.139Z,4
2016-11-22T06:13:55.159Z,0
2016-11-22T06:14:54.562Z,0
2016-11-22T06:15:54.573Z,0
2016-11-22T06:16:55.242Z,4
2016-11-22T06:17:55.249Z,4
2016-11-22T06:18:55.579Z,4
2016-11-22T06:19:54.965Z,4
2016-11-22T06:20:54.993Z,4
2016-11-22T06:21:55.355Z,4
2016-11-22T06:22:54.716Z,8
2016-11-22T06:23:55.370Z,8
2016-11-22T06:25:10.010Z,8
2016-11-22T06:25:54.785Z,8
2016-11-22T06:26:55.122Z,8
2016-11-22T06:27:55.141Z,8
2016-11-22T06:28:55.493Z,12
2016-11-22T06:29:55.181Z,12
2016-11-22T06:30:55.203Z,12
2016-11-22T06:31:55.542Z,16
2016-11-22T06:32:55.255Z,12
2016-11-22T06:33:55.266Z,16
2016-11-22T06:34:55.925Z,16
2016-11-22T06:35:54.997Z,16
2016-11-22T06:36:55.331Z,16
2016-11-22T06:37:55.671Z,16
2016-11-22T06:38:55.388Z,20
2016-11-22T06:39:55.407Z,16
2016-11-22T06:40:55.739Z,20
2016-11-22T06:41:55.444Z,24
2016-11-22T06:42:55.781Z,24
2016-11-22T06:43:55.799Z,24
2016-11-22T06:44:55.523Z,28
2016-11-22T06:45:56.158Z,32
2016-11-22T06:46:55.240Z,32
2016-11-22T06:47:55.578Z,36
2016-11-22T06:48:55.283Z,40
2016-11-22T06:49:55.653Z,40
2016-11-22T06:50:55.327Z,48
2016-11-22T06:51:55.979Z,56
2016-11-22T06:52:55.369Z,60
2016-11-22T06:53:55.388Z,68
2016-11-22T06:54:55.747Z,68
2016-11-22T06:55:56.070Z,80
2016-11-22T06:56:55.772Z,84
2016-11-22T06:57:56.107Z,92
2016-11-22T06:58:56.130Z,100
2016-11-22T06:59:55.836Z,104
2016-11-22T07:00:56.192Z,108
2016-11-22T07:01:55.879Z,112
2016-11-22T07:02:55.895Z,116
2016-11-22T07:03:56.232Z,120
2016-11-22T07:04:56.258Z,124
2016-11-22T07:05:56.289Z,128
2016-11-22T07:06:55.981Z,132
2016-11-22T07:07:56.017Z,140
2016-11-22T07:08:56.342Z,148
2016-11-22T07:09:55.732Z,152
2016-11-22T07:10:56.081Z,156
2016-11-22T07:11:56.404Z,164
2016-11-22T07:12:56.473Z,168
2016-11-22T07:13:56.445Z,180
2016-11-22T07:14:56.153Z,192
2016-11-22T07:15:56.513Z,208
2016-11-22T07:16:56.508Z,212
2016-11-22T07:17:56.221Z,216
2016-11-22T07:18:56.877Z,208
2016-11-22T07:19:56.261Z,204
2016-11-22T07:20:56.599Z,208
2016-11-22T07:21:56.305Z,212
2016-11-22T07:22:56.324Z,224
2016-11-22T07:23:56.656Z,236
2016-11-22T07:24:56.678Z,252
2016-11-22T07:25:56.700Z,264
2016-11-22T07:26:56.723Z,276
2016-11-22T07:27:56.109Z,292
2016-11-22T07:28:56.131Z,304
2016-11-22T07:29:56.798Z,324
2016-11-22T07:30:56.174Z,340
2016-11-22T07:31:56.508Z,360
2016-11-22T07:32:56.540Z,372
2016-11-22T07:33:56.558Z,392
2016-11-22T07:34:56.254Z,392
2016-11-22T07:35:56.610Z,388
2016-11-22T07:36:56.623Z,384
2016-11-22T07:37:56.648Z,380
2016-11-22T07:38:57.391Z,376
2016-11-22T07:39:57.002Z,364
2016-11-22T07:40:57.334Z,368
2016-11-22T07:41:57.052Z,364
2016-11-22T07:42:56.748Z,360
2016-11-22T07:43:57.086Z,356
2016-11-22T07:44:56.786Z,352
2016-11-22T07:45:57.132Z,360
2016-11-22T07:46:56.824Z,360
2016-11-22T07:47:56.853Z,364
2016-11-22T07:48:56.888Z,368
2016-11-22T07:49:56.892Z,376
2016-11-22T07:50:56.602Z,376
2016-11-22T07:51:56.942Z,384
2016-11-22T07:52:56.967Z,376
2016-11-22T07:53:57.294Z,364
2016-11-22T07:54:57.002Z,368
2016-11-22T07:55:57.337Z,380
2016-11-22T07:56:56.744Z,400
2016-11-22T07:57:57.403Z,404
2016-11-22T07:58:57.402Z,404
2016-11-22T07:59:57.106Z,400
2016-11-22T08:00:57.479Z,432
2016-11-22T08:01:57.465Z,460
2016-11-22T08:02:57.175Z,412
2016-11-22T08:03:57.192Z,392
2016-11-22T08:04:57.235Z,404
2016-11-22T08:05:57.558Z,404
2016-11-22T08:06:57.888Z,384
2016-11-22T08:07:57.609Z,380
2016-11-22T08:08:57.929Z,384
2016-11-22T08:09:57.318Z,396
2016-11-22T08:10:57.702Z,408
2016-11-22T08:11:57.373Z,428
2016-11-22T08:12:57.732Z,452
2016-11-22T08:13:57.410Z,468
2016-11-22T08:14:57.425Z,476
2016-11-22T08:15:57.133Z,492
2016-11-22T08:16:57.791Z,480
2016-11-22T08:17:58.120Z,476
2016-11-22T08:18:57.830Z,492
2016-11-22T08:19:57.851Z,508
2016-11-22T08:20:57.558Z,540
2016-11-22T08:21:57.577Z,588
2016-11-22T08:22:58.227Z,628
2016-11-22T08:23:57.640Z,664
2016-11-22T08:24:57.668Z,680
2016-11-22T08:25:57.347Z,704
2016-11-22T08:26:58.318Z,756
2016-11-22T08:27:57.387Z,816
2016-11-22T08:28:57.410Z,868
2016-11-22T08:29:57.763Z,900
2016-11-22T08:30:58.084Z,900
2016-11-22T08:31:57.806Z,964
2016-11-22T08:32:57.839Z,1016
2016-11-22T08:33:58.157Z,1032
2016-11-22T08:34:57.540Z,1052
2016-11-22T08:35:58.195Z,1096
2016-11-22T08:36:57.582Z,1148
2016-11-22T08:37:57.604Z,1180
2016-11-22T08:38:57.625Z,1184
2016-11-22T08:39:58.284Z,1204
2016-11-22T08:40:58.297Z,1196
2016-11-22T08:41:58.320Z,1212
2016-11-22T08:42:58.028Z,1248
2016-11-22T08:43:58.061Z,1308
2016-11-22T08:44:57.756Z,1468
2016-11-22T08:45:57.776Z,1900
2016-11-22T08:46:58.454Z,2580
2016-11-22T08:47:58.138Z,2856
2016-11-22T08:48:57.839Z,5584
2016-11-22T08:49:58.500Z,6360
2016-11-22T08:50:57.884Z,4312
2016-11-22T08:51:58.239Z,2520
2016-11-22T08:52:58.260Z,2184
2016-11-22T08:53:58.266Z,2036
2016-11-22T08:54:58.624Z,1788
2016-11-22T08:55:58.328Z,1608
2016-11-22T08:56:58.334Z,1476
2016-11-22T08:57:58.986Z,1440
2016-11-22T08:58:58.375Z,1244
2016-11-22T08:59:58.399Z,1320
2016-11-22T09:00:58.114Z,1336
2016-11-22T09:01:58.131Z,1092
2016-11-22T09:02:58.476Z,1164
2016-11-22T09:03:58.800Z,1284
2016-11-22T09:04:58.533Z,1304
2016-11-22T09:05:58.532Z,1348
2016-11-22T09:06:58.551Z,1448
2016-11-22T09:07:58.266Z,1452
2016-11-22T09:08:58.911Z,1624
2016-11-22T09:09:58.980Z,1568
2016-11-22T09:10:58.964Z,1408
2016-11-22T09:11:59.311Z,1564
2016-11-22T09:12:58.688Z,1840
2016-11-22T09:13:58.707Z,2244
2016-11-22T09:14:58.737Z,2044
2016-11-22T09:15:59.073Z,2192
2016-11-22T09:16:59.097Z,1712
2016-11-22T09:17:59.123Z,1512
2016-11-22T09:18:58.823Z,1472
2016-11-22T09:19:58.845Z,1960
2016-11-22T09:20:58.876Z,2216
2016-11-22T09:21:58.911Z,2376
2016-11-22T09:22:58.605Z,2460
2016-11-22T09:23:58.945Z,2468
2016-11-22T09:24:58.642Z,2300
2016-11-22T09:25:59.339Z,1836
2016-11-22T09:26:59.640Z,2008
2016-11-22T09:27:59.348Z,1800
2016-11-22T09:28:59.376Z,1812
2016-11-22T09:29:59.077Z,2160
2016-11-22T09:30:59.104Z,2284
2016-11-22T09:31:59.440Z,2212
2016-11-22T09:32:59.148Z,1832
2016-11-22T09:33:59.497Z,1936
2016-11-22T09:34:59.832Z,1968
2016-11-22T09:35:58.906Z,1748
2016-11-22T09:36:59.249Z,1588
2016-11-22T09:37:59.265Z,1508
2016-11-22T09:38:59.619Z,1400
2016-11-22T09:39:59.002Z,1552
2016-11-22T09:40:59.804Z,1552
2016-11-22T09:41:59.358Z,1740
2016-11-22T09:42:59.699Z,1748
2016-11-22T09:43:59.408Z,1600
2016-11-22T09:44:59.445Z,1444
2016-11-22T09:45:59.135Z,1424
2016-11-22T09:46:59.162Z,1276
2016-11-22T09:47:59.509Z,1580
2016-11-22T09:48:59.852Z,1632
2016-11-22T09:49:59.873Z,1360
2016-11-22T09:50:59.576Z,1276
2016-11-22T09:51:59.293Z,1092
2016-11-22T09:52:59.310Z,1048
2016-11-22T09:53:59.670Z,1060
2016-11-22T09:54:59.359Z,1096
2016-11-22T09:55:59.379Z,1044
2016-11-22T09:56:59.731Z,1008
2016-11-22T09:57:59.746Z,984
2016-11-22T09:59:00.085Z,1032
2016-11-22T09:59:59.482Z,1148
2016-11-22T10:01:00.446Z,1204
2016-11-22T10:01:59.840Z,1204
2016-11-22T10:03:00.181Z,1204
2016-11-22T10:03:59.893Z,1140
2016-11-22T10:05:00.229Z,1072
2016-11-22T10:06:00.255Z,1000
2016-11-22T10:06:59.970Z,944
2016-11-22T10:07:59.999Z,904
2016-11-22T10:09:00.328Z,872
2016-11-22T10:10:00.690Z,864
2016-11-22T10:11:00.058Z,848
2016-11-22T10:12:00.725Z,832
2016-11-22T10:13:00.109Z,816
2016-11-22T10:14:00.758Z,800
2016-11-22T10:15:00.153Z,792
2016-11-22T10:16:00.503Z,784
2016-11-22T10:17:00.510Z,784
2016-11-22T10:18:00.222Z,792
2016-11-22T10:19:00.243Z,824
2016-11-22T10:20:00.283Z,804
2016-11-22T10:21:00.612Z,772
2016-11-22T10:22:00.349Z,764
2016-11-22T10:23:00.654Z,776
2016-11-22T10:24:00.701Z,784
2016-11-22T10:25:00.703Z,792
2016-11-22T10:26:00.411Z,792
2016-11-22T10:27:00.122Z,784
2016-11-22T10:28:00.773Z,788
2016-11-22T10:29:00.483Z,832
2016-11-22T10:30:00.205Z,864
2016-11-22T10:31:00.227Z,800
2016-11-22T10:32:00.247Z,788
2016-11-22T10:33:00.255Z,792
2016-11-22T10:34:00.597Z,812
2016-11-22T10:35:00.620Z,876
2016-11-22T10:36:01.292Z,948
2016-11-22T10:37:00.669Z,960
2016-11-22T10:38:00.695Z,944
2016-11-22T10:39:01.031Z,928
2016-11-22T10:40:01.052Z,876
2016-11-22T10:41:00.764Z,848
2016-11-22T10:42:01.418Z,824
2016-11-22T10:43:01.131Z,824
2016-11-22T10:44:00.841Z,832
2016-11-22T10:45:00.858Z,832
2016-11-22T10:46:01.511Z,832
2016-11-22T10:47:00.902Z,836
2016-11-22T10:48:00.928Z,824
2016-11-22T10:49:01.262Z,792
2016-11-22T10:50:00.658Z,776
2016-11-22T10:51:01.019Z,776
2016-11-22T10:52:01.013Z,792
2016-11-22T10:53:01.162Z,780
2016-11-22T10:54:01.394Z,760
2016-11-22T10:55:01.736Z,744
2016-11-22T10:56:01.111Z,732
2016-11-22T10:57:01.137Z,720
2016-11-22T10:58:00.847Z,712
2016-11-22T10:59:01.496Z,708
2016-11-22T11:00:00.911Z,704
2016-11-22T11:01:01.546Z,692
2016-11-22T11:02:01.255Z,676
2016-11-22T11:03:01.906Z,664
2016-11-22T11:04:01.638Z,652
2016-11-22T11:05:01.340Z,644
2016-11-22T11:06:01.659Z,632
2016-11-22T11:07:01.707Z,620
2016-11-22T11:08:01.714Z,616
2016-11-22T11:09:01.763Z,600
2016-11-22T11:10:01.124Z,596
2016-11-22T11:11:01.462Z,584
2016-11-22T11:12:01.803Z,568
2016-11-22T11:13:01.825Z,564
2016-11-22T11:14:01.532Z,548
2016-11-22T11:15:01.243Z,540
2016-11-22T11:16:01.581Z,528
2016-11-22T11:17:01.600Z,516
2016-11-22T11:18:01.933Z,508
2016-11-22T11:19:01.967Z,504
2016-11-22T11:20:02.307Z,488
2016-11-22T11:21:01.691Z,480
2016-11-22T11:22:02.031Z,468
2016-11-22T11:23:01.422Z,460
2016-11-22T11:24:02.081Z,452
2016-11-22T11:25:01.789Z,452
2016-11-22T11:26:02.126Z,444
2016-11-22T11:27:01.520Z,436
2016-11-22T11:28:01.860Z,432
2016-11-22T11:29:01.561Z,428
2016-11-22T11:30:01.584Z,424
2016-11-22T11:31:01.930Z,420
2016-11-22T11:32:01.639Z,416
2016-11-22T11:33:02.282Z,416
2016-11-22T11:34:01.681Z,416
2016-11-22T11:35:02.017Z,420
2016-11-22T11:36:02.059Z,420
2016-11-22T11:37:02.062Z,420
2016-11-22T11:38:01.774Z,412
2016-11-22T11:39:02.110Z,412
2016-11-22T11:40:02.131Z,408
2016-11-22T11:41:02.469Z,404
2016-11-22T11:42:01.858Z,400
2016-11-22T11:43:02.204Z,396
2016-11-22T11:44:02.248Z,392
2016-11-22T11:45:02.274Z,384
2016-11-22T11:46:02.267Z,380
2016-11-22T11:47:02.919Z,380
2016-11-22T11:48:02.330Z,380
2016-11-22T11:49:02.366Z,372
2016-11-22T11:50:02.045Z,364
2016-11-22T11:51:02.692Z,372
2016-11-22T11:52:02.411Z,368
2016-11-22T11:53:02.747Z,364
2016-11-22T11:54:02.491Z,360
2016-11-22T11:55:02.478Z,360
2016-11-22T11:56:02.811Z,352
2016-11-22T11:57:02.522Z,352
2016-11-22T11:58:02.867Z,352
2016-11-22T11:59:02.248Z,348
2016-11-22T12:00:02.927Z,348
2016-11-22T12:01:02.612Z,356
2016-11-22T12:02:02.313Z,352
2016-11-22T12:03:02.670Z,352
2016-11-22T12:04:03.031Z,348
2016-11-22T12:05:02.700Z,348
2016-11-22T12:06:02.404Z,352
2016-11-22T12:07:03.077Z,352
2016-11-22T12:08:02.770Z,360
2016-11-22T12:09:03.136Z,364
2016-11-22T12:10:03.135Z,376
2016-11-22T12:11:03.150Z,380
2016-11-22T12:12:02.861Z,388
2016-11-22T12:13:03.197Z,400
2016-11-22T12:14:02.913Z,408
2016-11-22T12:15:02.990Z,412
2016-11-22T12:16:02.967Z,416
2016-11-22T12:17:03.005Z,420
2016-11-22T12:18:03.320Z,424
2016-11-22T12:19:03.337Z,428
2016-11-22T12:20:03.362Z,436
2016-11-22T12:21:02.750Z,436
2016-11-22T12:22:03.114Z,440
2016-11-22T12:23:03.118Z,444
2016-11-22T12:24:03.464Z,444
2016-11-22T12:25:03.476Z,448
2016-11-22T12:26:03.496Z,448
2016-11-22T12:27:03.524Z,452
2016-11-22T12:28:03.244Z,456
2016-11-22T12:29:03.564Z,456
2016-11-22T12:30:03.276Z,452
2016-11-22T12:31:02.976Z,452
2016-11-22T12:32:03.602Z,448
2016-11-22T12:33:03.788Z,444
2016-11-22T12:34:03.363Z,436
2016-11-22T12:35:03.385Z,436
2016-11-22T12:36:04.043Z,432
2016-11-22T12:37:03.434Z,428
2016-11-22T12:38:03.772Z,420
2016-11-22T12:39:03.792Z,416
2016-11-22T12:40:03.206Z,408
2016-11-22T12:41:03.245Z,400
2016-11-22T12:42:03.550Z,396
2016-11-22T12:43:03.895Z,388
2016-11-22T12:44:04.224Z,388
2016-11-22T12:45:03.931Z,388
2016-11-22T12:46:03.317Z,388
2016-11-22T12:47:03.662Z,392
2016-11-22T12:48:04.310Z,396
2016-11-22T12:49:04.020Z,392
2016-11-22T12:50:03.731Z,388
2016-11-22T12:51:04.103Z,392
2016-11-22T12:52:03.773Z,396
2016-11-22T12:53:04.112Z,400
2016-11-22T12:54:03.503Z,396
2016-11-22T12:55:03.543Z,396
2016-11-22T12:56:04.497Z,396
2016-11-22T12:57:03.571Z,396
2016-11-22T12:58:03.928Z,396
2016-11-22T12:59:03.960Z,388
2016-11-22T13:00:03.961Z,384
2016-11-22T13:01:03.983Z,380
2016-11-22T13:02:04.015Z,376
2016-11-22T13:03:03.713Z,372
2016-11-22T13:04:04.364Z,364
2016-11-22T13:05:04.070Z,356
2016-11-22T13:06:04.410Z,352
2016-11-22T13:07:04.426Z,348
2016-11-22T13:08:04.143Z,340
2016-11-22T13:09:04.480Z,336
2016-11-22T13:10:04.188Z,328
2016-11-22T13:11:04.207Z,324
2016-11-22T13:12:04.241Z,312
2016-11-22T13:13:04.251Z,312
2016-11-22T13:14:04.275Z,312
2016-11-22T13:15:04.312Z,308
2016-11-22T13:16:04.324Z,304
2016-11-22T13:17:04.345Z,300
2016-11-22T13:18:04.699Z,296
2016-11-22T13:19:04.718Z,292
2016-11-22T13:20:04.725Z,288
2016-11-22T13:21:04.126Z,280
2016-11-22T13:22:04.142Z,276
2016-11-22T13:23:05.121Z,272
2016-11-22T13:24:05.129Z,268
2016-11-22T13:25:04.524Z,264
2016-11-22T13:26:05.198Z,260
2016-11-22T13:27:04.579Z,252
2016-11-22T13:28:05.224Z,248
2016-11-22T13:29:05.252Z,244
2016-11-22T13:30:04.652Z,240
2016-11-22T13:31:04.664Z,236
2016-11-22T13:32:04.693Z,232
2016-11-22T13:33:05.351Z,228
2016-11-22T13:34:04.731Z,228
2016-11-22T13:35:04.759Z,228
2016-11-22T13:36:19.665Z,228
2016-11-22T13:37:05.116Z,228
2016-11-22T13:38:04.516Z,224
2016-11-22T13:39:05.556Z,224
2016-11-22T13:40:04.870Z,224
2016-11-22T13:41:04.890Z,224
2016-11-22T13:42:04.912Z,224
2016-11-22T13:43:05.567Z,224
2016-11-22T13:44:05.276Z,228
2016-11-22T13:45:04.980Z,232
2016-11-22T13:46:05.329Z,236
2016-11-22T13:47:05.341Z,236
2016-11-22T13:48:05.049Z,240
2016-11-22T13:49:05.403Z,240
2016-11-22T13:50:05.431Z,244
2016-11-22T13:51:05.721Z,240
2016-11-22T13:52:05.404Z,236
2016-11-22T13:53:04.853Z,240
2016-11-22T13:54:05.186Z,236
2016-11-22T13:55:04.899Z,240
2016-11-22T13:56:04.921Z,244
2016-11-22T13:57:05.279Z,248
2016-11-22T13:58:05.609Z,252
2016-11-22T13:59:05.301Z,268
2016-11-22T14:00:05.012Z,268
2016-11-22T14:01:05.353Z,248
2016-11-22T14:02:05.081Z,244
2016-11-22T14:03:05.707Z,236
2016-11-22T14:04:05.421Z,232
2016-11-22T14:05:06.075Z,232
2016-11-22T14:06:05.469Z,224
2016-11-22T14:07:06.113Z,224
2016-11-22T14:08:05.193Z,224
2016-11-22T14:09:05.216Z,224
2016-11-22T14:10:05.869Z,220
2016-11-22T14:11:05.263Z,216